createdAt,value
2022-10-13T00:00:19.615Z,39.33
2022-10-13T00:02:10.106Z,43.97
2022-10-13T00:04:00.572Z,40.95
2022-10-13T00:05:51.390Z,39.22
2022-10-13T00:07:41.757Z,48.63
2022-10-13T00:09:34.091Z,45.00
2022-10-13T00:11:26.462Z,39.20
2022-10-13T00:13:17.203Z,38.95
2022-10-13T00:15:09.121Z,37.03
2022-10-13T00:16:59.817Z,41.00
2022-10-13T00:18:50.814Z,37.80
2022-10-13T00:20:42.637Z,40.78
2022-10-13T00:22:32.943Z,43.75
2022-10-13T00:24:23.825Z,46.65
2022-10-13T00:26:16.636Z,38.90
2022-10-13T00:28:07.211Z,35.65
2022-10-13T00:29:57.789Z,38.95
2022-10-13T00:31:48.592Z,41.33
2022-10-13T00:33:39.201Z,44.33
2022-10-13T00:35:29.669Z,39.58
2022-10-13T00:37:20.453Z,44.65
2022-10-13T00:39:10.838Z,38.47
2022-10-13T00:41:01.169Z,39.70
2022-10-13T00:42:52.629Z,45.45
2022-10-13T00:45:00.034Z,41.08
2022-10-13T00:46:50.425Z,44.30
2022-10-13T00:48:41.623Z,42.40
2022-10-13T00:50:37.124Z,37.97
2022-10-13T00:52:28.214Z,41.38
2022-10-13T00:54:24.113Z,40.58
2022-10-13T00:56:16.986Z,38.08
2022-10-13T00:58:11.522Z,42.50
2022-10-13T01:00:03.926Z,34.55
2022-10-13T01:01:55.390Z,42.78
2022-10-13T01:03:45.727Z,42.25
2022-10-13T01:05:36.059Z,37.60
2022-10-13T01:07:27.013Z,32.38
2022-10-13T01:09:17.752Z,34.10
2022-10-13T01:11:32.442Z,40.35
2022-10-13T01:13:31.576Z,37.22
2022-10-13T01:15:28.180Z,38.83
2022-10-13T01:17:26.257Z,37.60
2022-10-13T01:19:31.214Z,42.00
2022-10-13T01:21:26.362Z,40.70
2022-10-13T01:23:56.393Z,63.97
2022-10-13T01:26:05.168Z,46.28
2022-10-13T01:28:12.403Z,54.65
2022-10-13T01:30:09.647Z,55.97
2022-10-13T01:32:02.285Z,54.40
2022-10-13T01:33:57.933Z,56.78
2022-10-13T01:35:58.206Z,54.13
2022-10-13T01:37:52.071Z,61.40
2022-10-13T01:39:45.084Z,58.97
2022-10-13T01:41:37.597Z,54.50
2022-10-13T01:43:30.483Z,61.80
2022-10-13T01:45:25.987Z,54.47
2022-10-13T01:47:16.719Z,56.78
2022-10-13T01:49:09.941Z,56.15
2022-10-13T01:51:00.853Z,56.78
2022-10-13T01:52:52.022Z,60.88
2022-10-13T01:54:42.945Z,57.53
2022-10-13T01:56:33.615Z,75.57
2022-10-13T01:58:25.175Z,65.90
2022-10-13T02:00:17.969Z,69.57
2022-10-13T02:04:10.493Z,61.47
2022-10-13T02:06:05.620Z,73.00
2022-10-13T02:07:59.656Z,60.78
2022-10-13T02:09:56.721Z,78.22
2022-10-13T02:11:51.059Z,63.03
2022-10-13T02:13:46.699Z,74.60
2022-10-13T02:15:39.921Z,69.75
2022-10-13T02:17:32.078Z,73.35
2022-10-13T02:19:23.166Z,76.97
2022-10-13T02:21:13.800Z,69.18
2022-10-13T02:23:07.577Z,66.18
2022-10-13T02:24:58.172Z,62.20
2022-10-13T02:26:50.694Z,60.85
2022-10-13T02:30:32.546Z,69.28
2022-10-13T02:32:23.645Z,65.03
2022-10-13T02:34:15.932Z,76.53
2022-10-13T02:36:06.371Z,74.95
2022-10-13T02:37:56.696Z,66.25
2022-10-13T02:39:46.921Z,71.78
2022-10-13T02:41:37.978Z,73.90
2022-10-13T02:43:28.549Z,85.50
2022-10-13T02:45:19.120Z,79.90
2022-10-13T02:47:09.928Z,80.85
2022-10-13T02:49:00.511Z,75.30
2022-10-13T02:50:52.637Z,71.82
2022-10-13T02:52:43.073Z,61.47
2022-10-13T02:54:33.524Z,71.20
2022-10-13T02:56:24.116Z,64.43
2022-10-13T02:58:14.564Z,62.65
2022-10-13T03:00:06.153Z,60.08
2022-10-13T03:01:56.426Z,58.30
2022-10-13T03:03:46.732Z,60.03
2022-10-13T03:05:37.334Z,57.05
2022-10-13T03:07:29.234Z,60.63
2022-10-13T03:09:20.076Z,60.63
2022-10-13T03:11:10.319Z,54.70
2022-10-13T03:13:00.747Z,57.45
2022-10-13T03:14:51.484Z,54.72
2022-10-13T03:16:42.428Z,58.67
2022-10-13T03:18:33.116Z,64.47
2022-10-13T03:20:23.488Z,58.88
2022-10-13T03:22:14.073Z,60.88
2022-10-13T03:24:06.148Z,59.70
2022-10-13T03:25:56.477Z,50.97
2022-10-13T03:27:47.317Z,70.90
2022-10-13T03:29:37.796Z,65.30
2022-10-13T03:31:29.302Z,62.17
2022-10-13T03:33:19.836Z,69.32
2022-10-13T03:35:10.226Z,58.70
2022-10-13T03:37:00.879Z,71.18
2022-10-13T03:38:51.514Z,58.50
2022-10-13T03:40:43.176Z,59.10
2022-10-13T03:42:35.677Z,53.03
2022-10-13T03:46:17.452Z,64.88
2022-10-13T03:48:08.181Z,75.93
2022-10-13T03:49:58.412Z,88.72
2022-10-13T03:51:49.037Z,75.70
2022-10-13T03:53:39.387Z,72.82
2022-10-13T03:55:29.802Z,71.55
2022-10-13T03:57:21.397Z,75.75
2022-10-13T03:59:12.991Z,68.15
2022-10-13T04:01:03.791Z,78.77
2022-10-13T04:02:54.388Z,78.50
2022-10-13T04:04:44.926Z,61.78
2022-10-13T04:06:35.268Z,70.55
2022-10-13T04:08:26.200Z,66.85
2022-10-13T04:10:16.702Z,70.55
2022-10-13T04:12:07.484Z,82.20
2022-10-13T04:13:59.181Z,67.10
2022-10-13T04:15:49.749Z,64.90
2022-10-13T04:17:40.087Z,65.45
2022-10-13T04:19:30.385Z,60.50
2022-10-13T04:21:20.807Z,64.97
2022-10-13T04:23:11.378Z,75.35
2022-10-13T04:25:02.028Z,78.85
2022-10-13T04:26:52.241Z,65.68
2022-10-13T04:28:43.225Z,65.95
2022-10-13T04:30:35.136Z,65.68
2022-10-13T04:32:25.467Z,63.67
2022-10-13T04:34:15.883Z,64.30
2022-10-13T04:36:07.509Z,56.30
2022-10-13T04:37:58.017Z,73.70
2022-10-13T04:39:48.322Z,65.50
2022-10-13T04:41:38.667Z,69.13
2022-10-13T04:43:28.923Z,70.05
2022-10-13T04:45:19.239Z,77.32
2022-10-13T04:47:10.931Z,59.58
2022-10-13T04:49:01.304Z,58.08
2022-10-13T04:50:59.124Z,64.75
2022-10-13T04:52:49.291Z,63.75
2022-10-13T04:54:39.717Z,66.45
2022-10-13T04:56:31.063Z,79.38
2022-10-13T04:58:21.916Z,69.80
2022-10-13T05:00:13.159Z,69.00
2022-10-13T05:02:03.501Z,67.88
2022-10-13T05:03:56.848Z,86.85
2022-10-13T05:05:47.446Z,67.72
2022-10-13T05:07:38.355Z,74.90
2022-10-13T05:09:28.808Z,65.53
2022-10-13T05:11:19.404Z,75.88
2022-10-13T05:13:09.684Z,70.53
2022-10-13T05:15:00.340Z,83.30
2022-10-13T05:16:50.811Z,79.68
2022-10-13T05:18:41.509Z,70.78
2022-10-13T05:20:36.523Z,80.15
2022-10-13T05:22:28.282Z,78.97
2022-10-13T05:24:18.813Z,70.18
2022-10-13T05:26:10.852Z,84.25
2022-10-13T05:28:01.023Z,65.55
2022-10-13T05:29:51.374Z,82.28
2022-10-13T05:31:41.976Z,88.03
2022-10-13T05:33:32.278Z,69.95
2022-10-13T05:35:22.613Z,76.55
2022-10-13T05:37:14.365Z,80.25
2022-10-13T05:39:06.625Z,92.80
2022-10-13T05:41:02.475Z,65.53
2022-10-13T05:42:53.025Z,68.78
2022-10-13T05:44:43.692Z,66.88
2022-10-13T05:46:34.551Z,82.57
2022-10-13T05:48:24.881Z,63.65
2022-10-13T05:50:15.476Z,67.40
2022-10-13T05:52:09.029Z,77.22
2022-10-13T05:54:03.763Z,76.22
2022-10-13T05:55:54.896Z,63.28
2022-10-13T05:57:48.182Z,65.25
2022-10-13T05:59:41.790Z,74.60
2022-10-13T06:01:36.209Z,69.97
2022-10-13T06:03:28.017Z,80.10
2022-10-13T06:05:20.242Z,78.72
2022-10-13T06:07:11.580Z,78.95
2022-10-13T06:09:03.768Z,70.07
2022-10-13T06:10:54.432Z,72.65
2022-10-13T06:13:21.972Z,74.20
2022-10-13T06:15:12.563Z,71.28
2022-10-13T06:17:03.144Z,65.40
2022-10-13T06:18:53.548Z,74.97
2022-10-13T06:20:44.100Z,83.95
2022-10-13T06:22:35.629Z,71.88
2022-10-13T06:24:25.969Z,90.40
2022-10-13T06:26:16.503Z,88.70
2022-10-13T06:28:06.947Z,69.05
2022-10-13T06:29:58.985Z,94.43
2022-10-13T06:31:49.400Z,84.47
2022-10-13T06:33:40.000Z,75.18
2022-10-13T06:35:30.376Z,69.70
2022-10-13T06:37:26.158Z,76.57
2022-10-13T06:39:17.717Z,70.97
2022-10-13T06:41:08.266Z,75.22
2022-10-13T06:42:58.712Z,74.88
2022-10-13T06:44:49.254Z,65.80
2022-10-13T06:46:40.993Z,79.65
2022-10-13T06:48:31.189Z,71.13
2022-10-13T06:50:21.442Z,79.55
2022-10-13T06:52:11.810Z,74.70
2022-10-13T06:54:02.030Z,74.88
2022-10-13T06:55:56.447Z,86.22
2022-10-13T06:57:46.873Z,83.22
2022-10-13T06:59:37.321Z,86.75
2022-10-13T07:01:28.297Z,89.95
2022-10-13T07:03:20.474Z,83.55
2022-10-13T07:05:10.701Z,76.28
2022-10-13T07:07:01.232Z,66.47
2022-10-13T07:08:51.569Z,80.80
2022-10-13T07:10:42.160Z,64.75
2022-10-13T07:12:32.850Z,68.13
2022-10-13T07:14:23.180Z,64.63
2022-10-13T07:16:14.198Z,66.90
2022-10-13T07:18:04.661Z,64.40
2022-10-13T07:20:01.333Z,64.55
2022-10-13T07:21:56.445Z,60.83
2022-10-13T07:23:47.024Z,56.50
2022-10-13T07:25:38.015Z,55.03
2022-10-13T07:27:28.617Z,58.88
2022-10-13T07:29:19.416Z,61.30
2022-10-13T07:31:12.937Z,58.00
2022-10-13T07:33:03.561Z,50.35
2022-10-13T07:34:53.836Z,50.10
2022-10-13T07:36:45.501Z,55.25
2022-10-13T07:38:36.642Z,55.78
2022-10-13T07:40:27.356Z,54.08
2022-10-13T07:42:18.279Z,49.08
2022-10-13T07:44:08.858Z,51.90
2022-10-13T07:45:59.714Z,53.17
2022-10-13T07:47:50.053Z,51.55
2022-10-13T07:49:40.285Z,59.90
2022-10-13T07:51:30.584Z,58.28
2022-10-13T07:53:22.535Z,62.05
2022-10-13T07:55:13.029Z,62.97
2022-10-13T07:57:03.662Z,66.25
2022-10-13T07:58:54.459Z,72.47
2022-10-13T08:00:45.157Z,60.20
2022-10-13T08:02:36.013Z,64.38
2022-10-13T08:04:29.482Z,71.72
2022-10-13T08:06:20.045Z,56.88
2022-10-13T08:08:10.303Z,65.85
2022-10-13T08:10:02.031Z,56.97
2022-10-13T08:11:55.518Z,70.25
2022-10-13T08:13:48.779Z,56.60
2022-10-13T08:15:40.378Z,68.07
2022-10-13T08:17:30.947Z,73.53
2022-10-13T08:19:22.285Z,63.70
2022-10-13T08:23:24.669Z,66.27
2022-10-13T08:25:16.496Z,55.88
2022-10-13T08:27:10.020Z,51.67
2022-10-13T08:29:20.683Z,54.08
2022-10-13T08:31:11.706Z,59.67
2022-10-13T08:33:02.197Z,69.72
2022-10-13T08:34:52.599Z,54.28
2022-10-13T08:36:43.003Z,52.85
2022-10-13T08:38:33.898Z,59.90
2022-10-13T08:40:25.930Z,54.72
2022-10-13T08:42:19.274Z,51.85
2022-10-13T08:46:28.594Z,57.97
2022-10-13T08:48:21.104Z,54.85
2022-10-13T08:50:14.384Z,62.53
2022-10-13T08:52:05.711Z,56.88
2022-10-13T08:53:56.303Z,68.57
2022-10-13T08:55:51.126Z,56.03
2022-10-13T08:57:41.805Z,55.20
2022-10-13T08:59:32.290Z,57.03
2022-10-13T09:01:24.649Z,61.95
2022-10-13T09:03:23.462Z,58.25
2022-10-13T09:05:21.757Z,74.10
2022-10-13T09:07:15.667Z,78.38
2022-10-13T09:09:08.045Z,67.00
2022-10-13T09:11:00.050Z,71.65
2022-10-13T09:12:50.730Z,71.10
2022-10-13T09:14:41.259Z,72.50
2022-10-13T09:16:35.073Z,67.35
2022-10-13T09:18:29.128Z,66.35
2022-10-13T09:20:21.661Z,67.82
2022-10-13T09:24:08.404Z,73.20
2022-10-13T09:26:07.323Z,65.65
2022-10-13T09:28:00.326Z,73.22
2022-10-13T09:29:50.999Z,66.95
2022-10-13T09:31:42.101Z,56.85
2022-10-13T09:33:36.280Z,62.63
2022-10-13T09:35:27.457Z,57.50
2022-10-13T09:37:20.602Z,62.78
2022-10-13T09:39:14.210Z,67.32
2022-10-13T09:41:16.243Z,71.55
2022-10-13T09:43:29.163Z,57.90
2022-10-13T09:45:21.289Z,58.88
2022-10-13T09:47:18.731Z,61.85
2022-10-13T09:49:31.291Z,50.58
2022-10-13T09:51:32.616Z,48.25
2022-10-13T09:53:26.193Z,51.20
2022-10-13T09:55:32.631Z,45.03
2022-10-13T09:57:30.358Z,51.78
2022-10-13T09:59:27.439Z,47.88
2022-10-13T10:01:23.914Z,43.97
2022-10-13T10:03:17.797Z,42.13
2022-10-13T10:05:22.669Z,50.40
2022-10-13T10:07:18.327Z,45.30
2022-10-13T10:09:28.857Z,48.80
2022-10-13T10:11:22.718Z,50.80
2022-10-13T10:13:15.018Z,41.95
2022-10-13T10:15:17.960Z,41.58
2022-10-13T10:17:19.329Z,41.45
2022-10-13T10:19:14.155Z,42.03
2022-10-13T10:21:08.951Z,47.55
2022-10-13T10:23:02.422Z,40.40
2022-10-13T10:24:59.267Z,48.78
2022-10-13T10:26:54.429Z,45.00
2022-10-13T10:29:02.248Z,36.72
2022-10-13T10:31:01.834Z,40.15
2022-10-13T10:32:57.584Z,40.85
2022-10-13T10:34:51.892Z,38.58
2022-10-13T10:36:51.515Z,41.80
2022-10-13T10:38:44.917Z,40.75
2022-10-13T10:40:38.970Z,36.65
2022-10-13T10:42:52.347Z,41.58
2022-10-13T10:46:42.408Z,48.30
2022-10-13T10:48:36.153Z,36.13
2022-10-13T10:50:26.854Z,38.50
2022-10-13T10:52:20.676Z,40.47
2022-10-13T10:54:21.866Z,41.63
2022-10-13T10:56:17.480Z,47.08
2022-10-13T10:58:20.461Z,42.80
2022-10-13T11:00:15.961Z,40.45
2022-10-13T11:02:15.102Z,49.00
2022-10-13T11:04:33.140Z,47.67
2022-10-13T11:06:32.104Z,51.20
2022-10-13T11:08:27.741Z,45.10
2022-10-13T11:10:20.345Z,32.40
2022-10-13T11:12:22.874Z,41.80
2022-10-13T11:14:34.620Z,44.97
2022-10-13T11:16:31.094Z,32.97
2022-10-13T11:19:00.304Z,44.45
2022-10-13T11:20:58.528Z,38.30
2022-10-13T11:23:26.281Z,32.17
2022-10-13T11:25:36.195Z,37.15
2022-10-13T11:27:41.366Z,40.53
2022-10-13T11:29:55.132Z,44.67
2022-10-13T11:31:52.239Z,40.90
2022-10-13T11:33:54.559Z,41.15
2022-10-13T11:37:48.309Z,38.08
2022-10-13T11:40:03.696Z,44.20
2022-10-13T11:42:01.819Z,42.03
2022-10-13T11:43:56.518Z,32.15
2022-10-13T11:46:19.652Z,43.53
2022-10-13T11:48:30.391Z,37.88
2022-10-13T11:50:28.109Z,44.50
2022-10-13T11:52:40.836Z,46.97
2022-10-13T11:54:33.135Z,38.83
2022-10-13T11:56:32.921Z,32.83
2022-10-13T11:58:24.628Z,44.13
2022-10-13T12:00:17.419Z,32.67
2022-10-13T12:02:16.948Z,38.88
2022-10-13T12:04:14.955Z,37.72
2022-10-13T12:06:07.366Z,35.05
2022-10-13T12:08:02.939Z,48.33
2022-10-13T12:09:55.211Z,41.85
2022-10-13T12:11:46.196Z,37.45
2022-10-13T12:13:36.826Z,31.38
2022-10-13T12:15:37.847Z,33.78
2022-10-13T12:17:31.568Z,40.35
2022-10-13T12:19:25.811Z,39.78
2022-10-13T12:21:18.306Z,39.88
2022-10-13T12:23:17.371Z,43.60
2022-10-13T12:25:15.816Z,41.60
2022-10-13T12:27:10.800Z,42.70
2022-10-13T12:29:03.170Z,45.55
2022-10-13T12:30:56.067Z,41.85
2022-10-13T12:32:49.414Z,35.63
2022-10-13T12:34:41.398Z,41.53
2022-10-13T12:36:33.746Z,36.78
2022-10-13T12:38:24.251Z,39.55
2022-10-13T12:40:15.992Z,32.25
2022-10-13T12:42:08.049Z,40.03
2022-10-13T12:44:01.139Z,38.00
2022-10-13T12:45:54.550Z,43.30
2022-10-13T12:47:50.339Z,41.13
2022-10-13T12:49:42.892Z,37.83
2022-10-13T12:53:26.753Z,41.58
2022-10-13T12:55:19.329Z,39.40
2022-10-13T12:57:17.466Z,38.00
2022-10-13T12:59:15.813Z,42.58
2022-10-13T13:01:24.556Z,44.30
2022-10-13T13:03:21.640Z,44.10
2022-10-13T13:05:32.705Z,43.70
2022-10-13T13:07:29.594Z,50.50
2022-10-13T13:09:22.973Z,47.92
2022-10-13T13:11:21.335Z,47.50
2022-10-13T13:13:21.220Z,41.47
2022-10-13T13:15:31.173Z,39.97
2022-10-13T13:17:52.994Z,40.97
2022-10-13T13:19:36.254Z,39.75
2022-10-13T13:21:28.000Z,39.80
2022-10-13T13:23:18.670Z,44.33
2022-10-13T13:25:09.319Z,39.47
2022-10-13T13:26:59.862Z,40.47
2022-10-13T13:28:52.041Z,38.95
2022-10-13T13:30:42.882Z,41.45
2022-10-13T13:32:33.474Z,44.30
2022-10-13T13:34:24.735Z,39.80
2022-10-13T13:36:17.833Z,44.60
2022-10-13T13:38:11.010Z,37.35
2022-10-13T13:40:01.762Z,40.20
2022-10-13T13:41:52.388Z,37.72
2022-10-13T13:43:46.186Z,27.80
2022-10-13T13:45:36.844Z,34.33
2022-10-13T13:47:28.356Z,36.63
2022-10-13T13:49:18.979Z,31.55
2022-10-13T13:51:09.477Z,31.77
2022-10-13T13:53:00.621Z,33.20
2022-10-13T13:54:52.809Z,34.58
2022-10-13T13:56:43.381Z,26.05
2022-10-13T13:58:33.836Z,23.50
2022-10-13T14:00:24.822Z,28.50
2022-10-13T14:02:17.061Z,15.45
2022-10-13T14:04:07.518Z,12.55
2022-10-13T14:05:58.259Z,7.63
2022-10-13T14:07:48.939Z,8.23
2022-10-13T14:09:39.697Z,5.40
2022-10-13T14:11:32.023Z,6.00
2022-10-13T14:13:22.520Z,6.22
2022-10-13T14:15:13.159Z,5.53
2022-10-13T14:17:04.289Z,6.35
2022-10-13T14:18:56.499Z,4.93
2022-10-13T14:20:51.439Z,6.00
2022-10-13T14:22:41.952Z,5.00
2022-10-13T14:24:32.377Z,4.28
2022-10-13T14:26:23.296Z,4.38
2022-10-13T14:28:18.195Z,4.15
2022-10-13T14:30:10.757Z,3.88
2022-10-13T14:32:04.794Z,3.72
2022-10-13T14:33:55.412Z,2.85
2022-10-13T14:35:46.193Z,1.52
2022-10-13T14:37:36.954Z,5.13
2022-10-13T14:39:27.691Z,2.50
2022-10-13T14:41:18.361Z,2.65
2022-10-13T14:43:08.697Z,34.63
2022-10-13T14:45:03.988Z,10.25
2022-10-13T14:46:54.579Z,12.27
2022-10-13T14:48:45.294Z,8.13
2022-10-13T14:50:37.837Z,4.28
2022-10-13T14:52:28.942Z,2.78
2022-10-13T14:54:19.661Z,4.75
2022-10-13T14:56:17.442Z,4.53
2022-10-13T14:58:08.078Z,5.40
2022-10-13T15:00:01.836Z,6.32
2022-10-13T15:01:54.474Z,7.80
2022-10-13T15:03:45.672Z,2.95
2022-10-13T15:05:36.516Z,4.00
2022-10-13T15:07:26.772Z,8.43
2022-10-13T15:09:17.114Z,3.53
2022-10-13T15:11:07.809Z,6.18
2022-10-13T15:12:58.235Z,3.08
2022-10-13T15:14:49.017Z,2.22
2022-10-13T15:16:39.851Z,5.35
2022-10-13T15:18:32.273Z,4.03
2022-10-13T15:20:22.721Z,6.30
2022-10-13T15:22:13.053Z,5.28
2022-10-13T15:24:03.805Z,2.42
2022-10-13T15:25:55.426Z,5.63
2022-10-13T15:27:46.047Z,5.28
2022-10-13T15:29:36.816Z,6.03
2022-10-13T15:31:27.521Z,5.00
2022-10-13T15:33:18.586Z,2.15
2022-10-13T15:35:10.847Z,1.97
2022-10-13T15:38:52.377Z,1.98
2022-10-13T15:40:43.143Z,2.97
2022-10-13T15:42:33.754Z,3.50
2022-10-13T15:44:25.046Z,4.15
2022-10-13T15:46:16.079Z,3.15
2022-10-13T15:48:07.942Z,3.30
2022-10-13T15:49:58.776Z,3.60
2022-10-13T15:51:51.157Z,3.33
2022-10-13T15:53:42.134Z,2.92
2022-10-13T15:55:33.058Z,2.53
2022-10-13T15:57:23.574Z,5.38
2022-10-13T15:59:14.239Z,2.60
2022-10-13T16:01:07.503Z,2.10
2022-10-13T16:03:00.241Z,3.22
2022-10-13T16:04:51.123Z,11.25
2022-10-13T16:06:41.693Z,5.57
2022-10-13T16:08:35.911Z,3.22
2022-10-13T16:10:26.716Z,3.78
2022-10-13T16:12:17.605Z,2.88
2022-10-13T16:14:09.120Z,3.33
2022-10-13T16:16:00.461Z,4.18
2022-10-13T16:17:53.950Z,2.03
2022-10-13T16:19:44.564Z,2.25
2022-10-13T16:21:35.136Z,3.20
2022-10-13T16:23:28.620Z,8.18
2022-10-13T16:25:20.776Z,3.53
2022-10-13T16:27:11.394Z,2.35
2022-10-13T16:29:02.409Z,3.33
2022-10-13T16:30:53.161Z,3.50
2022-10-13T16:32:43.615Z,2.95
2022-10-13T16:34:34.691Z,2.22
2022-10-13T16:36:25.481Z,3.20
2022-10-13T16:38:16.131Z,2.95
2022-10-13T16:40:07.863Z,3.20
2022-10-13T16:41:59.682Z,4.15
2022-10-13T16:43:50.646Z,7.28
2022-10-13T16:45:59.249Z,3.75
2022-10-13T16:47:50.863Z,3.35
2022-10-13T16:49:41.619Z,4.72
2022-10-13T16:51:32.055Z,3.78
2022-10-13T16:53:22.638Z,6.55
2022-10-13T16:55:13.727Z,5.18
2022-10-13T16:57:05.378Z,6.28
2022-10-13T16:58:58.553Z,6.78
2022-10-13T17:00:49.664Z,6.35
2022-10-13T17:02:40.469Z,6.80
2022-10-13T17:04:31.610Z,8.93
2022-10-13T17:06:23.776Z,8.63
2022-10-13T17:08:14.724Z,8.55
2022-10-13T17:10:12.857Z,7.32
2022-10-13T17:12:05.541Z,8.45
2022-10-13T17:13:57.220Z,7.72
2022-10-13T17:15:51.809Z,9.10
2022-10-13T17:17:42.677Z,8.40
2022-10-13T17:19:33.433Z,6.57
2022-10-13T17:21:24.267Z,8.13
2022-10-13T17:23:14.564Z,9.80
2022-10-13T17:25:05.916Z,6.28
2022-10-13T17:26:56.356Z,8.52
2022-10-13T17:28:48.752Z,6.43
2022-10-13T17:30:39.198Z,8.65
2022-10-13T17:32:29.742Z,10.18
2022-10-13T17:34:20.421Z,8.65
2022-10-13T17:36:13.658Z,8.32
2022-10-13T17:38:06.687Z,7.13
2022-10-13T17:39:57.315Z,6.72
2022-10-13T17:41:47.765Z,9.30
2022-10-13T17:43:39.421Z,6.32
2022-10-13T17:45:31.297Z,12.23
2022-10-13T17:47:22.144Z,9.38
2022-10-13T17:49:13.650Z,10.93
2022-10-13T17:51:04.815Z,13.27
2022-10-13T17:52:55.403Z,15.18
2022-10-13T17:54:46.009Z,15.90
2022-10-13T17:56:37.091Z,17.02
2022-10-13T17:58:27.684Z,15.75
2022-10-13T18:00:18.709Z,18.60
2022-10-13T18:02:10.635Z,22.20
2022-10-13T18:04:02.351Z,20.40
2022-10-13T18:07:44.061Z,15.68
2022-10-13T18:09:34.890Z,15.13
2022-10-13T18:11:25.440Z,14.10
2022-10-13T18:13:15.943Z,14.15
2022-10-13T18:15:07.512Z,14.93
2022-10-13T18:16:57.792Z,15.35
2022-10-13T18:18:50.868Z,16.23
2022-10-13T18:20:41.204Z,15.10
2022-10-13T18:22:31.574Z,12.88
2022-10-13T18:24:22.113Z,13.88
2022-10-13T18:26:14.126Z,14.82
2022-10-13T18:28:05.115Z,12.10
2022-10-13T18:29:58.230Z,13.35
2022-10-13T18:31:48.690Z,12.23
2022-10-13T18:33:39.153Z,17.08
2022-10-13T18:35:32.350Z,11.73
2022-10-13T18:37:23.517Z,12.23
2022-10-13T18:39:15.408Z,18.10
2022-10-13T18:41:05.964Z,13.80
2022-10-13T18:42:56.568Z,13.90
2022-10-13T18:44:47.066Z,15.95
2022-10-13T18:46:38.626Z,15.00
2022-10-13T18:48:29.605Z,19.35
2022-10-13T18:50:19.930Z,19.23
2022-10-13T18:52:11.850Z,20.23
2022-10-13T18:54:02.457Z,16.95
2022-10-13T18:56:01.402Z,19.23
2022-10-13T18:57:51.714Z,16.73
2022-10-13T18:59:42.556Z,19.05
2022-10-13T19:01:34.809Z,23.20
2022-10-13T19:05:16.610Z,25.85
2022-10-13T19:07:07.409Z,26.83
2022-10-13T19:09:00.439Z,27.90
2022-10-13T19:10:51.578Z,22.88
2022-10-13T19:12:42.256Z,27.33
2022-10-13T19:14:32.603Z,31.17
2022-10-13T19:16:24.561Z,27.98
2022-10-13T19:18:15.917Z,34.47
2022-10-13T19:20:06.900Z,21.20
2022-10-13T19:21:57.428Z,31.75
2022-10-13T19:23:47.720Z,25.10
2022-10-13T19:25:42.475Z,32.50
2022-10-13T19:27:33.034Z,33.63
2022-10-13T19:29:23.510Z,30.50
2022-10-13T19:31:15.928Z,31.98
2022-10-13T19:33:07.609Z,40.15
2022-10-13T19:34:58.610Z,40.58
2022-10-13T19:36:49.477Z,42.10
2022-10-13T19:38:40.121Z,40.10
2022-10-13T19:40:30.784Z,48.33
2022-10-13T19:42:22.864Z,40.75
2022-10-13T19:44:13.864Z,44.60
2022-10-13T19:46:06.891Z,42.75
2022-10-13T19:47:57.770Z,39.35
2022-10-13T19:49:51.203Z,46.65
2022-10-13T19:51:42.535Z,40.25
2022-10-13T19:53:33.710Z,40.85
2022-10-13T19:55:26.863Z,31.98
2022-10-13T19:57:17.227Z,45.97
2022-10-13T19:59:08.850Z,30.65
2022-10-13T20:02:53.013Z,37.88
2022-10-13T20:04:46.751Z,31.50
2022-10-13T20:06:37.592Z,31.02
2022-10-13T20:08:28.572Z,33.90
2022-10-13T20:10:19.341Z,37.28
2022-10-13T20:12:10.174Z,27.33
2022-10-13T20:14:03.972Z,31.60
2022-10-13T20:15:55.908Z,26.52
2022-10-13T20:17:46.736Z,30.42
2022-10-13T20:19:37.664Z,36.58
2022-10-13T20:21:28.902Z,37.40
2022-10-13T20:23:19.531Z,35.35
2022-10-13T20:25:10.054Z,31.88
2022-10-13T20:27:01.793Z,40.33
2022-10-13T20:28:53.848Z,45.20
2022-10-13T20:30:44.623Z,35.78
2022-10-13T20:32:36.517Z,33.53
2022-10-13T20:34:27.417Z,35.08
2022-10-13T20:36:18.274Z,39.95
2022-10-13T20:38:08.873Z,35.28
2022-10-13T20:39:59.659Z,32.58
2022-10-13T20:41:50.315Z,34.33
2022-10-13T20:43:40.903Z,30.70
2022-10-13T20:45:31.661Z,32.40
2022-10-13T20:47:22.514Z,30.60
2022-10-13T20:49:15.100Z,29.00
2022-10-13T20:51:07.454Z,33.85
2022-10-13T20:52:57.960Z,28.20
2022-10-13T20:54:48.162Z,28.80
2022-10-13T20:56:38.768Z,32.65
2022-10-13T20:58:31.305Z,35.17
2022-10-13T21:00:22.372Z,28.92
2022-10-13T21:02:13.366Z,31.02
2022-10-13T21:04:04.660Z,33.92
2022-10-13T21:05:57.470Z,36.05
2022-10-13T21:07:48.368Z,32.97
2022-10-13T21:09:39.070Z,27.33
2022-10-13T21:11:29.953Z,32.00
2022-10-13T21:13:21.342Z,28.80
2022-10-13T21:15:11.650Z,31.52
2022-10-13T21:17:02.467Z,33.42
2022-10-13T21:18:53.859Z,35.17
2022-10-13T21:20:44.657Z,35.30
2022-10-13T21:22:36.626Z,32.97
2022-10-13T21:24:27.587Z,33.38
2022-10-13T21:26:21.587Z,41.67
2022-10-13T21:28:12.206Z,33.50
2022-10-13T21:30:03.149Z,32.05
2022-10-13T21:31:53.588Z,33.78
2022-10-13T21:33:43.995Z,28.23
2022-10-13T21:35:35.666Z,30.63
2022-10-13T21:37:26.669Z,33.38
2022-10-13T21:39:18.588Z,28.63
2022-10-13T21:41:11.223Z,26.85
2022-10-13T21:43:01.803Z,28.23
2022-10-13T21:44:52.569Z,33.95
2022-10-13T21:46:43.676Z,25.33
2022-10-13T21:48:34.498Z,29.23
2022-10-13T21:50:25.354Z,31.60
2022-10-13T21:52:15.947Z,32.33
2022-10-13T21:54:07.743Z,28.65
2022-10-13T21:56:05.145Z,23.70
2022-10-13T21:58:00.581Z,26.70
2022-10-13T21:59:53.588Z,32.53
2022-10-13T22:01:44.252Z,31.30
2022-10-13T22:03:35.456Z,29.88
2022-10-13T22:05:26.096Z,30.13
2022-10-13T22:07:17.257Z,29.77
2022-10-13T22:09:08.080Z,24.05
2022-10-13T22:10:58.990Z,25.67
2022-10-13T22:12:50.840Z,23.20
2022-10-13T22:14:41.869Z,29.50
2022-10-13T22:16:36.122Z,24.58
2022-10-13T22:18:27.559Z,29.85
2022-10-13T22:20:18.366Z,24.57
2022-10-13T22:22:09.353Z,23.67
2022-10-13T22:24:01.462Z,22.42
2022-10-13T22:25:51.907Z,24.05
2022-10-13T22:27:42.504Z,25.67
2022-10-13T22:29:35.784Z,22.70
2022-10-13T22:31:27.997Z,23.55
2022-10-13T22:33:18.572Z,29.50
2022-10-13T22:35:10.457Z,24.55
2022-10-13T22:37:02.193Z,25.23
2022-10-13T22:38:54.272Z,23.10
2022-10-13T22:40:45.336Z,20.90
2022-10-13T22:42:36.231Z,22.33
2022-10-13T22:44:30.116Z,21.98
2022-10-13T22:46:23.748Z,29.40
2022-10-13T22:48:14.393Z,29.30
2022-10-13T22:50:05.908Z,28.13
2022-10-13T22:51:56.577Z,21.50
2022-10-13T22:53:48.039Z,26.45
2022-10-13T22:55:39.214Z,22.70
2022-10-13T22:57:30.120Z,25.42
2022-10-13T22:59:21.265Z,24.40
2022-10-13T23:01:13.956Z,34.65
2022-10-13T23:03:06.465Z,33.55
2022-10-13T23:04:57.276Z,29.85
2022-10-13T23:06:48.252Z,32.50
2022-10-13T23:08:39.099Z,33.45
2022-10-13T23:10:29.894Z,40.67
2022-10-13T23:12:20.947Z,35.13
2022-10-13T23:14:11.570Z,32.20
2022-10-13T23:16:02.887Z,36.28
2022-10-13T23:17:53.963Z,34.53
2022-10-13T23:19:46.172Z,32.00
2022-10-13T23:21:36.982Z,36.28
2022-10-13T23:23:27.717Z,31.60
2022-10-13T23:25:18.717Z,33.58
2022-10-13T23:27:09.437Z,43.40
2022-10-13T23:29:00.426Z,34.95
2022-10-13T23:30:50.850Z,36.38
2022-10-13T23:32:41.668Z,42.00
2022-10-13T23:34:32.542Z,45.30
2022-10-13T23:36:26.484Z,35.97
2022-10-13T23:38:16.908Z,37.67
2022-10-13T23:40:08.403Z,39.88
2022-10-13T23:41:59.154Z,41.22
2022-10-13T23:43:49.400Z,41.38
2022-10-13T23:45:40.460Z,45.85
2022-10-13T23:47:31.089Z,36.10
2022-10-13T23:49:22.567Z,41.65
2022-10-13T23:51:15.185Z,39.47
2022-10-13T23:53:06.978Z,39.50
2022-10-13T23:54:57.636Z,58.58
2022-10-13T23:56:47.970Z,54.75
2022-10-13T23:58:39.502Z,56.90
